Terminal Aerodrome Forecast
Issued by NWS Bismarck, ND

Home | Current Version | Previous Version | Graphics & Text | Print | Product List | Glossary On
Versions: 1 2 3 4 5 6 7 8 9 10 11 12 13 14 15 16 17 18 19 20 21
000
FTUS43 KBIS 221128 AAA
TAFBIS
TAF AMD
KBIS 221128Z 2211/2312 VRB03KT 5SM BR SCT200
     FM221300 13004KT P6SM SCT150
     FM221700 15007KT P6SM SCT050 BKN120
     FM222200 15007KT P6SM VCTS SCT050CB BKN120
     FM230000 13007KT P6SM VCTS SCT050CB BKN130
     FM230600 12005KT P6SM VCSH SCT200
     FM231000 09006KT P6SM BKN250=

USA.gov is the U.S. government's official web portal to all federal, state and local government web resources and services.